Skip Navigation Links
NOAA logo - Click to go to the NOAA homepage
NOAA's National Weather Service
Alaska Aviation Weather Unit
  NWS logo - Click to go to the NWS homepage
Left Navbar Graphic     12 AKDT = 20 GMT

   
NOAA is celebrating 200 years of science, service, and stewardship. Visit the NOAA 200th celebration Web site to learn more.
USA.gov is the U.S. Government's official Web portal to all Federal, state and local government Web resources and services.
Facebook
NWS on Facebook

Important Change Regarding the AAWU Web Presence

 

Over the last several months, the AAWU has been working to navigate its webpages to a nationally supported server. Security, as well as other needs, have necessitated the change.  We have been given an extension for the site changeover while we diligently work at addressing feedback received. As of July 14, 2017, aawu.arh.noaa.gov will be discontinued. The new AAWU web address is weather.gov/aawu. It is now live and will run in-parallel with the old site until it is discontinued on July 14, 2017. Please continue to send any feedback or questions regarding the new webpages to nws.ar.aawu.webauthors@noaa.gov.  Thank you for your patience during this time of transition.
AAWU Home :: Display TAF Add Bookmark
METAR PACZ 251455Z AUTO 00000KT 10SM FEW001 BKN012 10/10 A2992=

PACZ 251549Z AUTO 03006KT 1 3/4SM BR BKN003 10/10 A2993=

METAR PACZ 251555Z AUTO 04005KT 2SM BR BKN002 10/10 A2993=

PACZ 251604Z AUTO 05003KT 2SM BR BKN003 10/10 A2993=

PACZ 251634Z AUTO 02003KT 10SM FEW002 BKN006 BKN038 10/10 A2993=

PACZ 251649Z AUTO 02002KT 10SM FEW002 BKN007 BKN037 10/10 A2993=

METAR PACZ 251655Z AUTO 03002KT 10SM BKN007 BKN037 10/10 A2992=

PACZ 251704Z AUTO VRB04KT 10SM BKN006 BKN037 10/10 A2993=

PACZ 251719Z AUTO 27004KT 1 1/4SM BR BKN003 10/10 A2992=

METAR PACZ 251755Z AUTO 25005KT M1/4SM FG VV002 10/10 A2992=

PACZ 251849Z AUTO 26006KT 1/4SM FG VV003 10/09 A2993=

METAR PACZ 251855Z AUTO 26006KT 1/4SM BCFG VV003 09/09 A2993=

PACZ 251904Z AUTO 26004KT 2 1/2SM BCBR VV002 09/09 A2994=

PACZ 251919Z AUTO 27006KT 3SM BCBR VV002 10/10 A2994=

METAR PACZ 251955Z AUTO 26005KT 10SM BKN002 10/10 A2994=

PACZ 252019Z AUTO 27008KT 10SM OVC003 10/10 A2994=


NOAA's National Weather Service
Alaska Aviation Weather Unit
6930 Sand Lake Road
Anchorage, AK 99502-1845
Disclaimer
Credits
Glossary
Privacy Policy
About Us
Career Opportunities
Contact AAWU Internet Services Site last modified: April, 17th 2012